createdAt,value
2018-07-01T00:00:02.740Z,35.10
2018-07-01T00:02:34.886Z,35.10
2018-07-01T00:05:07.166Z,35.10
2018-07-01T00:07:38.991Z,35.10
2018-07-01T00:10:12.061Z,35.10
2018-07-01T00:12:43.703Z,35.00
2018-07-01T00:15:15.862Z,35.00
2018-07-01T00:17:48.881Z,35.00
2018-07-01T00:25:22.779Z,35.00
2018-07-01T00:27:54.648Z,35.00
2018-07-01T00:30:26.902Z,35.00
2018-07-01T00:32:58.525Z,34.90
2018-07-01T00:35:30.313Z,34.90
2018-07-01T00:38:02.238Z,34.90
2018-07-01T00:40:34.323Z,34.90
2018-07-01T00:45:37.211Z,34.90
2018-07-01T00:48:09.150Z,34.80
2018-07-01T00:50:41.224Z,34.70
2018-07-01T00:53:12.726Z,34.70
2018-07-01T00:55:45.487Z,34.60
2018-07-01T00:58:17.185Z,34.60
2018-07-01T01:00:49.261Z,34.60
2018-07-01T01:03:21.336Z,34.50
2018-07-01T01:05:53.526Z,34.60
2018-07-01T01:08:25.063Z,34.60
2018-07-01T01:10:57.414Z,34.60
2018-07-01T01:13:29.074Z,34.70
2018-07-01T01:16:00.901Z,34.60
2018-07-01T01:18:34.500Z,34.70
2018-07-01T01:23:37.798Z,34.70
2018-07-01T01:26:09.759Z,34.70
2018-07-01T01:28:41.917Z,34.70
2018-07-01T01:33:44.930Z,34.70
2018-07-01T01:36:17.187Z,34.70
2018-07-01T01:41:26.251Z,34.70
2018-07-01T01:44:02.392Z,34.70
2018-07-01T01:46:43.173Z,34.70
2018-07-01T01:49:25.259Z,34.70
2018-07-01T01:52:01.775Z,34.70
2018-07-01T01:55:36.817Z,34.70
2018-07-01T02:01:25.981Z,34.70
2018-07-01T02:04:06.676Z,34.70
2018-07-01T02:06:42.433Z,34.70
2018-07-01T02:09:23.505Z,34.70
2018-07-01T02:11:56.602Z,34.70
2018-07-01T02:14:36.747Z,34.80
2018-07-01T02:17:11.452Z,34.70
2018-07-01T02:19:46.343Z,34.80
2018-07-01T02:22:21.566Z,34.80
2018-07-01T02:24:54.779Z,34.80
2018-07-01T02:27:26.922Z,34.90
2018-07-01T02:29:59.285Z,35.00
2018-07-01T02:32:31.223Z,35.00
2018-07-01T02:35:03.139Z,35.10
2018-07-01T02:37:34.796Z,35.10
2018-07-01T02:40:07.392Z,35.20
2018-07-01T02:42:39.330Z,35.30
2018-07-01T02:45:11.714Z,35.30
2018-07-01T02:47:43.508Z,35.30
2018-07-01T02:50:15.581Z,35.30
2018-07-01T02:52:47.366Z,35.40
2018-07-01T02:55:19.650Z,35.50
2018-07-01T02:57:51.617Z,35.50
2018-07-01T03:00:23.716Z,35.50
2018-07-01T03:02:55.523Z,35.60
2018-07-01T03:05:27.256Z,35.70
2018-07-01T03:07:59.139Z,35.80
2018-07-01T03:10:31.129Z,35.80
2018-07-01T03:13:02.716Z,35.90
2018-07-01T03:15:34.819Z,36.10
2018-07-01T03:18:06.531Z,36.20
2018-07-01T03:20:40.620Z,36.20
2018-07-01T03:23:12.347Z,36.20
2018-07-01T03:25:44.015Z,36.40
2018-07-01T03:28:15.758Z,36.50
2018-07-01T03:30:48.224Z,36.50
2018-07-01T03:33:20.009Z,36.50
2018-07-01T03:35:52.078Z,36.50
2018-07-01T03:38:23.896Z,36.50
2018-07-01T03:40:55.803Z,36.60
2018-07-01T03:43:27.469Z,36.80
2018-07-01T03:45:59.667Z,36.90
2018-07-01T03:48:31.393Z,37.10
2018-07-01T03:51:04.351Z,37.10
2018-07-01T03:53:36.425Z,37.20
2018-07-01T03:56:08.525Z,37.30
2018-07-01T03:58:40.247Z,37.50
2018-07-01T04:01:11.915Z,37.60
2018-07-01T04:03:43.909Z,37.70
2018-07-01T04:06:15.843Z,37.80
2018-07-01T04:08:47.538Z,37.90
2018-07-01T04:11:19.513Z,37.90
2018-07-01T04:13:51.252Z,38.10
2018-07-01T04:16:23.413Z,38.00
2018-07-01T04:18:55.038Z,38.30
2018-07-01T04:21:28.251Z,38.30
2018-07-01T04:24:00.135Z,38.20
2018-07-01T04:26:32.177Z,38.30
2018-07-01T04:29:03.963Z,38.70
2018-07-01T04:31:36.185Z,39.00
2018-07-01T04:34:07.965Z,39.20
2018-07-01T04:36:40.469Z,39.10
2018-07-01T04:39:12.402Z,39.50
2018-07-01T04:41:44.613Z,39.60
2018-07-01T04:44:16.410Z,39.80
2018-07-01T04:46:48.342Z,40.00
2018-07-01T04:49:20.391Z,39.90
2018-07-01T04:51:52.621Z,40.30
2018-07-01T04:54:24.192Z,40.30
2018-07-01T04:56:56.158Z,40.90
2018-07-01T04:59:27.922Z,41.00
2018-07-01T05:01:59.750Z,41.90
2018-07-01T05:04:31.370Z,42.30
2018-07-01T05:07:03.299Z,42.80
2018-07-01T05:14:36.894Z,43.30
2018-07-01T05:17:09.762Z,43.00
2018-07-01T05:19:41.730Z,43.10
2018-07-01T05:22:14.978Z,43.30
2018-07-01T05:24:46.746Z,43.00
2018-07-01T05:27:18.775Z,42.90
2018-07-01T05:29:50.714Z,44.00
2018-07-01T05:32:22.833Z,43.80
2018-07-01T05:34:54.490Z,44.30
2018-07-01T05:37:26.443Z,44.60
2018-07-01T05:39:58.225Z,45.20
2018-07-01T05:42:30.553Z,45.60
2018-07-01T05:45:02.785Z,45.60
2018-07-01T05:47:34.885Z,45.70
2018-07-01T05:50:06.715Z,45.00
2018-07-01T05:52:38.765Z,44.80
2018-07-01T05:55:10.595Z,44.50
2018-07-01T05:57:42.726Z,44.70
2018-07-01T06:00:14.457Z,44.50
2018-07-01T06:02:46.135Z,44.50
2018-07-01T06:05:17.755Z,44.40
2018-07-01T06:10:20.607Z,44.20
2018-07-01T06:12:52.879Z,44.20
2018-07-01T06:15:24.560Z,44.70
2018-07-01T06:17:56.381Z,45.60
2018-07-01T06:20:28.246Z,46.50
2018-07-01T06:23:02.066Z,46.50
2018-07-01T06:28:05.210Z,47.60
2018-07-01T06:30:36.870Z,47.50
2018-07-01T06:33:08.776Z,47.60
2018-07-01T06:35:40.671Z,48.10
2018-07-01T06:38:12.500Z,48.10
2018-07-01T06:40:44.330Z,47.60
2018-07-01T06:43:16.168Z,46.70
2018-07-01T06:48:19.250Z,46.80
2018-07-01T06:50:50.972Z,46.70
2018-07-01T06:53:22.578Z,46.10
2018-07-01T06:55:54.415Z,46.40
2018-07-01T06:58:26.348Z,46.40
2018-07-01T07:00:58.102Z,46.30
2018-07-01T07:03:30.092Z,46.30
2018-07-01T07:06:01.959Z,46.30
2018-07-01T07:08:33.914Z,46.30
2018-07-01T07:11:05.629Z,46.30
2018-07-01T07:13:37.671Z,46.30
2018-07-01T07:16:09.305Z,46.60
2018-07-01T07:18:41.290Z,46.70
2018-07-01T07:21:13.141Z,47.20
2018-07-01T07:23:46.251Z,47.90
2018-07-01T07:26:17.895Z,48.30
2018-07-01T07:28:49.788Z,48.80
2018-07-01T07:31:21.726Z,48.90
2018-07-01T07:33:53.938Z,48.90
2018-07-01T07:36:25.714Z,49.00
2018-07-01T07:38:57.735Z,49.50
2018-07-01T07:41:29.277Z,49.50
2018-07-01T07:44:01.314Z,49.30
2018-07-01T07:46:33.209Z,48.50
2018-07-01T07:49:05.362Z,47.70
2018-07-01T07:51:37.185Z,47.40
2018-07-01T07:54:09.050Z,46.40
2018-07-01T07:56:40.805Z,45.90
2018-07-01T07:59:12.666Z,45.60
2018-07-01T08:01:44.367Z,45.40
2018-07-01T08:04:16.190Z,45.40
2018-07-01T08:06:47.877Z,45.40
2018-07-01T08:09:20.736Z,45.30
2018-07-01T08:11:53.201Z,45.30
2018-07-01T08:14:25.190Z,45.20
2018-07-01T08:16:56.871Z,45.20
2018-07-01T08:19:29.026Z,45.10
2018-07-01T08:22:01.010Z,45.10
2018-07-01T08:24:34.610Z,45.20
2018-07-01T08:27:06.379Z,45.00
2018-07-01T08:29:38.594Z,45.00
2018-07-01T08:32:10.310Z,45.00
2018-07-01T08:34:42.496Z,44.90
2018-07-01T08:37:14.457Z,45.00
2018-07-01T08:39:46.627Z,44.90
2018-07-01T08:42:22.837Z,44.70
2018-07-01T08:44:55.805Z,44.90
2018-07-01T08:47:27.641Z,45.00
2018-07-01T08:50:00.044Z,44.70
2018-07-01T08:52:32.094Z,44.70
2018-07-01T08:57:35.131Z,44.80
2018-07-01T09:00:07.646Z,44.80
2018-07-01T09:02:40.644Z,44.70
2018-07-01T09:05:12.610Z,44.80
2018-07-01T09:07:44.372Z,44.90
2018-07-01T09:10:16.411Z,44.70
2018-07-01T09:12:48.164Z,44.60
2018-07-01T09:15:20.384Z,44.70
2018-07-01T09:17:51.936Z,44.70
2018-07-01T09:25:27.109Z,44.60
2018-07-01T09:27:58.962Z,44.60
2018-07-01T09:30:30.750Z,44.50
2018-07-01T09:33:02.524Z,44.50
2018-07-01T09:35:34.506Z,44.50
2018-07-01T09:38:06.234Z,44.30
2018-07-01T09:40:38.482Z,44.20
2018-07-01T09:43:10.055Z,44.20
2018-07-01T09:45:42.942Z,44.20
2018-07-01T09:50:46.739Z,44.20
2018-07-01T09:53:18.648Z,44.30
2018-07-01T09:55:50.961Z,44.30
2018-07-01T09:58:22.614Z,44.30
2018-07-01T10:00:54.535Z,44.30
2018-07-01T10:05:57.305Z,44.40
2018-07-01T10:08:29.395Z,44.30
2018-07-01T10:13:31.975Z,44.20
2018-07-01T10:16:03.929Z,44.20
2018-07-01T10:18:35.854Z,44.20
2018-07-01T10:23:38.927Z,44.30
2018-07-01T10:29:15.481Z,44.10
2018-07-01T10:31:47.779Z,44.00
2018-07-01T10:34:19.560Z,44.00
2018-07-01T10:36:51.582Z,44.00
2018-07-01T10:39:23.572Z,43.90
2018-07-01T10:41:56.282Z,43.90
2018-07-01T10:44:28.090Z,43.70
2018-07-01T10:47:00.146Z,43.90
2018-07-01T10:49:32.094Z,43.80
2018-07-01T10:52:04.007Z,43.70
2018-07-01T10:54:35.695Z,43.80
2018-07-01T10:57:07.643Z,43.80
2018-07-01T11:02:10.665Z,43.30
2018-07-01T11:04:42.387Z,43.20
2018-07-01T11:07:14.895Z,43.30
2018-07-01T11:09:46.605Z,43.20
2018-07-01T11:12:19.437Z,43.20
2018-07-01T11:14:51.442Z,43.20
2018-07-01T11:17:23.266Z,43.20
2018-07-01T11:19:54.867Z,43.20
2018-07-01T11:22:27.155Z,43.10
2018-07-01T11:24:58.864Z,43.20
2018-07-01T11:27:32.054Z,43.10
2018-07-01T11:30:03.943Z,43.10
2018-07-01T11:32:35.691Z,43.10
2018-07-01T11:35:07.682Z,43.10
2018-07-01T11:40:11.745Z,43.00
2018-07-01T11:42:43.666Z,42.80
2018-07-01T11:45:15.469Z,42.90
2018-07-01T11:47:47.548Z,42.90
2018-07-01T11:50:19.480Z,42.80
2018-07-01T11:52:51.570Z,42.80
2018-07-01T11:55:23.405Z,42.80
2018-07-01T11:57:55.627Z,42.80
2018-07-01T12:00:27.505Z,42.90
2018-07-01T12:02:59.791Z,42.90
2018-07-01T12:05:31.821Z,42.90
2018-07-01T12:08:04.261Z,42.90
2018-07-01T12:13:06.913Z,42.70
2018-07-01T12:15:38.627Z,42.70
2018-07-01T12:20:42.467Z,42.40
2018-07-01T12:23:14.759Z,42.30
2018-07-01T12:25:46.647Z,42.20
2018-07-01T12:28:19.681Z,42.00
2018-07-01T12:30:51.451Z,42.00
2018-07-01T12:35:54.798Z,41.90
2018-07-01T12:38:26.535Z,41.90
2018-07-01T12:40:58.795Z,41.80
2018-07-01T12:43:30.856Z,41.70
2018-07-01T12:46:02.550Z,41.70
2018-07-01T12:48:34.402Z,41.60
2018-07-01T12:51:06.504Z,41.70
2018-07-01T12:53:38.691Z,41.60
2018-07-01T12:56:10.495Z,41.50
2018-07-01T12:58:42.513Z,41.60
2018-07-01T13:01:14.446Z,41.50
2018-07-01T13:06:17.350Z,41.40
2018-07-01T13:08:50.165Z,41.40
2018-07-01T13:11:22.985Z,41.40
2018-07-01T13:13:55.248Z,41.30
2018-07-01T13:16:27.494Z,41.30
2018-07-01T13:18:59.431Z,41.20
2018-07-01T13:21:31.372Z,41.00
2018-07-01T13:24:03.373Z,41.00
2018-07-01T13:26:35.393Z,41.00
2018-07-01T13:29:09.706Z,41.10
2018-07-01T13:31:41.559Z,41.00
2018-07-01T13:34:13.665Z,40.90
2018-07-01T13:36:45.434Z,41.00
2018-07-01T13:39:18.686Z,41.00
2018-07-01T13:41:50.359Z,41.00
2018-07-01T13:44:22.268Z,40.90
2018-07-01T13:46:54.078Z,40.90
2018-07-01T13:49:26.206Z,40.80
2018-07-01T13:51:58.145Z,40.80
2018-07-01T13:54:30.151Z,40.70
2018-07-01T13:57:02.071Z,40.50
2018-07-01T13:59:33.941Z,40.50
2018-07-01T14:02:05.662Z,40.40
2018-07-01T14:04:37.726Z,40.40
2018-07-01T14:07:09.323Z,40.30
2018-07-01T14:09:41.454Z,40.20
2018-07-01T14:12:13.423Z,40.20
2018-07-01T14:14:45.304Z,39.90
2018-07-01T14:17:16.988Z,39.90
2018-07-01T14:19:49.267Z,39.90
2018-07-01T14:22:20.819Z,39.80
2018-07-01T14:24:52.957Z,39.80
2018-07-01T14:27:24.929Z,39.70
2018-07-01T14:29:58.901Z,39.50
2018-07-01T14:32:30.565Z,39.40
2018-07-01T14:35:02.987Z,39.40
2018-07-01T14:37:34.747Z,39.30
2018-07-01T14:40:06.685Z,39.20
2018-07-01T14:42:38.583Z,39.10
2018-07-01T14:45:11.106Z,39.00
2018-07-01T14:50:14.133Z,38.80
2018-07-01T14:52:45.791Z,38.70
2018-07-01T14:55:17.766Z,38.60
2018-07-01T14:57:49.621Z,38.60
2018-07-01T15:00:21.774Z,38.40
2018-07-01T15:02:53.449Z,38.30
2018-07-01T15:05:25.294Z,38.30
2018-07-01T15:07:58.069Z,38.20
2018-07-01T15:10:30.521Z,38.10
2018-07-01T15:13:02.533Z,38.10
2018-07-01T15:15:34.509Z,38.00
2018-07-01T15:18:06.349Z,38.00
2018-07-01T15:20:38.434Z,37.90
2018-07-01T15:23:10.391Z,37.80
2018-07-01T15:25:42.174Z,37.60
2018-07-01T15:28:13.810Z,37.60
2018-07-01T15:30:47.493Z,37.50
2018-07-01T15:33:19.275Z,37.50
2018-07-01T15:35:51.667Z,37.30
2018-07-01T15:38:23.435Z,37.30
2018-07-01T15:40:55.298Z,37.20
2018-07-01T15:43:27.217Z,37.20
2018-07-01T15:45:59.545Z,37.10
2018-07-01T15:48:31.697Z,37.10
2018-07-01T15:51:03.641Z,37.00
2018-07-01T15:53:35.269Z,37.00
2018-07-01T15:56:07.478Z,36.90
2018-07-01T15:58:39.214Z,36.90
2018-07-01T16:01:11.413Z,36.80
2018-07-01T16:03:43.096Z,36.80
2018-07-01T16:06:15.302Z,36.70
2018-07-01T16:08:47.251Z,36.60
2018-07-01T16:11:19.006Z,36.60
2018-07-01T16:13:50.750Z,36.60
2018-07-01T16:16:22.735Z,36.60
2018-07-01T16:21:30.641Z,36.60
2018-07-01T16:26:38.410Z,36.40
2018-07-01T16:29:10.429Z,36.40
2018-07-01T16:31:49.754Z,36.30
2018-07-01T16:34:21.783Z,35.90
2018-07-01T16:36:53.554Z,36.20
2018-07-01T16:39:25.203Z,36.20
2018-07-01T16:41:57.059Z,36.20
2018-07-01T16:44:28.906Z,36.20
2018-07-01T16:47:01.045Z,36.20
2018-07-01T16:49:33.869Z,36.20
2018-07-01T16:52:05.965Z,36.20
2018-07-01T16:54:38.045Z,36.20
2018-07-01T16:57:10.109Z,36.20
2018-07-01T16:59:41.749Z,36.10
2018-07-01T17:02:13.655Z,36.10
2018-07-01T17:04:45.428Z,36.10
2018-07-01T17:07:17.144Z,36.00
2018-07-01T17:09:48.838Z,36.00
2018-07-01T17:12:20.781Z,36.00
2018-07-01T17:14:52.467Z,35.90
2018-07-01T17:17:24.314Z,36.00
2018-07-01T17:19:55.894Z,36.00
2018-07-01T17:22:28.069Z,36.00
2018-07-01T17:24:59.703Z,36.00
2018-07-01T17:27:31.639Z,35.90
2018-07-01T17:30:03.506Z,35.90
2018-07-01T17:32:41.570Z,35.90
2018-07-01T17:35:13.259Z,35.90
2018-07-01T17:37:45.187Z,36.00
2018-07-01T17:40:16.909Z,35.90
2018-07-01T17:45:19.466Z,35.90
2018-07-01T17:47:51.482Z,35.90
2018-07-01T17:50:23.217Z,35.90
2018-07-01T17:52:54.938Z,36.00
2018-07-01T17:55:26.812Z,36.00
2018-07-01T17:57:58.722Z,36.00
2018-07-01T18:00:31.138Z,35.90
2018-07-01T18:03:03.345Z,35.80
2018-07-01T18:05:35.218Z,35.80
2018-07-01T18:10:38.191Z,35.90
2018-07-01T18:13:10.343Z,35.90
2018-07-01T18:15:41.930Z,35.90
2018-07-01T18:18:13.778Z,35.80
2018-07-01T18:20:45.649Z,35.70
2018-07-01T18:23:44.887Z,35.70
2018-07-01T18:25:49.599Z,35.70
2018-07-01T18:28:34.108Z,35.70
2018-07-01T18:30:53.595Z,35.60
2018-07-01T18:33:27.001Z,35.70
2018-07-01T18:35:58.590Z,35.70
2018-07-01T18:38:30.592Z,35.70
2018-07-01T18:41:02.151Z,35.60
2018-07-01T18:43:34.378Z,35.50
2018-07-01T18:46:06.221Z,35.60
2018-07-01T18:48:38.357Z,35.60
2018-07-01T18:51:10.286Z,35.60
2018-07-01T18:53:42.282Z,35.60
2018-07-01T18:58:46.010Z,35.50
2018-07-01T19:01:17.711Z,35.50
2018-07-01T19:03:49.742Z,35.50
2018-07-01T19:06:21.670Z,35.50
2018-07-01T19:08:53.815Z,35.50
2018-07-01T19:11:25.768Z,35.50
2018-07-01T19:13:58.018Z,35.50
2018-07-01T19:16:29.894Z,35.50
2018-07-01T19:19:02.171Z,35.40
2018-07-01T19:21:33.878Z,35.40
2018-07-01T19:24:05.883Z,35.40
2018-07-01T19:26:37.632Z,35.50
2018-07-01T19:29:09.720Z,35.40
2018-07-01T19:31:41.422Z,35.40
2018-07-01T19:34:15.070Z,35.40
2018-07-01T19:36:46.863Z,35.30
2018-07-01T19:39:18.929Z,35.30
2018-07-01T19:41:50.626Z,35.30
2018-07-01T19:44:22.330Z,35.30
2018-07-01T19:49:24.919Z,35.20
2018-07-01T19:51:56.661Z,35.20
2018-07-01T19:54:28.812Z,35.20
2018-07-01T19:57:00.646Z,35.20
2018-07-01T19:59:32.742Z,35.10
2018-07-01T20:02:04.730Z,35.20
2018-07-01T20:04:36.750Z,35.20
2018-07-01T20:07:08.565Z,35.20
2018-07-01T20:09:40.554Z,35.20
2018-07-01T20:12:12.206Z,35.20
2018-07-01T20:14:44.215Z,35.20
2018-07-01T20:17:15.974Z,35.10
2018-07-01T20:19:48.160Z,35.10
2018-07-01T20:22:19.927Z,35.10
2018-07-01T20:24:51.809Z,35.00
2018-07-01T20:27:23.479Z,35.00
2018-07-01T20:29:55.422Z,35.00
2018-07-01T20:34:59.709Z,34.90
2018-07-01T20:37:31.655Z,35.00
2018-07-01T20:40:03.802Z,35.00
2018-07-01T20:42:35.462Z,35.00
2018-07-01T20:45:07.720Z,34.90
2018-07-01T20:47:39.505Z,34.90
2018-07-01T20:50:11.516Z,34.90
2018-07-01T20:52:43.270Z,34.90
2018-07-01T20:55:15.099Z,34.80
2018-07-01T20:57:46.849Z,34.90
2018-07-01T21:00:19.271Z,34.80
2018-07-01T21:02:50.814Z,34.70
2018-07-01T21:05:22.854Z,34.70
2018-07-01T21:07:54.689Z,34.70
2018-07-01T21:12:57.734Z,34.70
2018-07-01T21:15:30.102Z,34.70
2018-07-01T21:18:01.802Z,34.60
2018-07-01T21:20:33.822Z,34.60
2018-07-01T21:23:05.452Z,34.60
2018-07-01T21:25:37.579Z,34.50
2018-07-01T21:28:09.330Z,34.60
2018-07-01T21:30:41.137Z,34.50
2018-07-01T21:33:12.903Z,34.50
2018-07-01T21:35:46.238Z,34.50
2018-07-01T21:38:18.013Z,34.40
2018-07-01T21:40:49.961Z,34.50
2018-07-01T21:43:21.838Z,34.40
2018-07-01T21:45:53.899Z,34.50
2018-07-01T21:48:25.800Z,34.50
2018-07-01T21:50:58.018Z,34.40
2018-07-01T21:53:29.938Z,34.40
2018-07-01T21:56:01.939Z,34.40
2018-07-01T21:58:33.726Z,34.40
2018-07-01T22:01:07.709Z,34.30
2018-07-01T22:03:39.478Z,34.30
2018-07-01T22:06:11.805Z,34.40
2018-07-01T22:08:43.511Z,34.30
2018-07-01T22:11:47.799Z,34.30
2018-07-01T22:14:39.940Z,34.30
2018-07-01T22:17:12.913Z,34.30
2018-07-01T22:19:45.159Z,34.20
2018-07-01T22:22:17.113Z,34.30
2018-07-01T22:24:49.006Z,34.20
2018-07-01T22:27:21.986Z,34.20
2018-07-01T22:29:54.354Z,34.20
2018-07-01T22:32:26.281Z,34.10
2018-07-01T22:34:58.588Z,34.20
2018-07-01T22:37:32.739Z,34.20
2018-07-01T22:40:04.794Z,34.10
2018-07-01T22:42:36.857Z,34.20
2018-07-01T22:45:08.500Z,34.20
2018-07-01T22:47:40.602Z,34.10
2018-07-01T22:50:12.351Z,34.10
2018-07-01T22:52:44.415Z,34.10
2018-07-01T22:55:16.199Z,34.10
2018-07-01T22:57:48.340Z,34.10
2018-07-01T23:00:20.164Z,34.10
2018-07-01T23:03:02.624Z,34.10
2018-07-01T23:05:34.187Z,34.10
2018-07-01T23:08:07.166Z,34.10
2018-07-01T23:10:38.715Z,34.10
2018-07-01T23:13:11.159Z,34.10
2018-07-01T23:15:42.999Z,34.10
2018-07-01T23:18:14.811Z,34.10
2018-07-01T23:20:46.627Z,34.10
2018-07-01T23:23:18.674Z,34.00
2018-07-01T23:25:50.518Z,34.00
2018-07-01T23:28:22.362Z,33.90
2018-07-01T23:30:54.233Z,33.80
2018-07-01T23:33:26.593Z,33.70
2018-07-01T23:35:58.356Z,33.80
2018-07-01T23:38:31.797Z,33.80
2018-07-01T23:41:03.566Z,33.80
2018-07-01T23:43:35.669Z,33.70
2018-07-01T23:46:07.657Z,33.70
2018-07-01T23:51:10.582Z,33.70
2018-07-01T23:53:42.503Z,33.60
2018-07-01T23:56:14.362Z,33.60
2018-07-01T23:58:47.012Z,33.50
